Abergavenny, United Kingdom
Current Conditions -  °F | °C
As of 12:20 PM on Friday 24 Oct 2014 (Local Time) from EGFF Reporting Station
Rain Showers Rain Showers  
Wind Chill: 59°   Ceiling: 300
Heat Index: 59°   Visibility: 6mi
Dew Point: 57°   Wind: 3mph
Humidity: 94%   Direction: 190°S
Pressure: 29.91"   Gusts: NA
Location:  51.82°N, 3.02°W
Report Text: EGFF 241120Z 19003KT 9999 6000N VCSH BKN003 15/14 Q1013
Loading
Personal Weather Stations






























Interactive Weather Map
Tropical Storm Tracking
New forecast layout! Learn more

10-Day Weather Forecast

Advertisements
Track Severe Weather on mobile